KLM734 EDDF-EDDL
Flight info
| Callsign | KLM734 |
|---|---|
| Flight time | N/A |
| Altitude | 24000 |
| Route | MARUN3W/25C MARUN Y152 ARPEG Z850 ADEMI T854 DOMUX DOMUX1A |
| Aircraft | B738/M-SDE2E3FGHIRWXY/LB1 |
Departure
| Time | 2026-05-04 19:46 |
|---|---|
| Airport | Frankfurt Main Airport (EDDF) |
Arrival
| Time | N/A |
|---|---|
| Airport | Düsseldorf Airport (EDDL) |
| Time | Latitude | Longitude | Altitude | Speed | Heading |
|---|---|---|---|---|---|
| 2026-05-04 19:08 | 50.04709 | 8.57621 | 369 ft | 0 kts | 25° |
| 2026-05-04 19:33 | 50.04701 | 8.57615 | 371 ft | 2 kts | 22° |
| 2026-05-04 19:33 | 50.04685 | 8.57606 | 369 ft | 2 kts | 15° |
| 2026-05-04 19:33 | 50.04669 | 8.57601 | 366 ft | 2 kts | 1° |
| 2026-05-04 19:33 | 50.04652 | 8.57606 | 366 ft | 2 kts | 323° |
| 2026-05-04 19:34 | 50.04644 | 8.57626 | 367 ft | 2 kts | 270° |
| 2026-05-04 19:34 | 50.04644 | 8.57638 | 366 ft | 0 kts | 256° |
| 2026-05-04 19:39 | 50.04639 | 8.57610 | 368 ft | 11 kts | 252° |
| 2026-05-04 19:39 | 50.04573 | 8.57509 | 365 ft | 12 kts | 166° |
| 2026-05-04 19:39 | 50.04494 | 8.57579 | 366 ft | 16 kts | 137° |
| 2026-05-04 19:40 | 50.04483 | 8.57762 | 371 ft | 21 kts | 71° |
| 2026-05-04 19:40 | 50.04537 | 8.57996 | 370 ft | 25 kts | 70° |
| 2026-05-04 19:40 | 50.04606 | 8.58284 | 372 ft | 31 kts | 70° |
| 2026-05-04 19:40 | 50.04640 | 8.58545 | 369 ft | 18 kts | 131° |
| 2026-05-04 19:41 | 50.04596 | 8.58589 | 368 ft | 0 kts | 162° |
| 2026-05-04 19:44 | 50.04592 | 8.58591 | 369 ft | 7 kts | 162° |
| 2026-05-04 19:44 | 50.04517 | 8.58625 | 371 ft | 11 kts | 175° |
| 2026-05-04 19:45 | 50.04474 | 8.58591 | 372 ft | 6 kts | 240° |
| 2026-05-04 19:45 | 50.04471 | 8.58524 | 371 ft | 7 kts | 261° |
| 2026-05-04 19:45 | 50.04463 | 8.58486 | 370 ft | 1 kts | 250° |
| 2026-05-04 19:45 | 50.04400 | 8.58219 | 369 ft | 70 kts | 250° |
| 2026-05-04 19:46 | 50.04126 | 8.57053 | 371 ft | 154 kts | 252° |
| 2026-05-04 19:46 | 50.03748 | 8.55316 | 913 ft | 184 kts | 252° |
| 2026-05-04 19:46 | 50.03301 | 8.53335 | 1898 ft | 199 kts | 251° |
| 2026-05-04 19:46 | 50.02818 | 8.51308 | 2935 ft | 204 kts | 248° |
| 2026-05-04 19:47 | 50.02029 | 8.49483 | 3909 ft | 208 kts | 223° |
| 2026-05-04 19:47 | 50.00825 | 8.48279 | 4896 ft | 206 kts | 200° |
| 2026-05-04 19:47 | 49.99412 | 8.47800 | 5788 ft | 213 kts | 189° |
| 2026-05-04 19:47 | 49.97926 | 8.47474 | 6710 ft | 218 kts | 189° |
| 2026-05-04 19:48 | 49.96420 | 8.47148 | 7751 ft | 218 kts | 189° |
| 2026-05-04 19:48 | 49.94890 | 8.46620 | 8528 ft | 235 kts | 197° |
| 2026-05-04 19:48 | 49.93288 | 8.45873 | 9411 ft | 244 kts | 199° |
| 2026-05-04 19:48 | 49.91793 | 8.44623 | 10361 ft | 248 kts | 221° |
| 2026-05-04 19:49 | 49.90821 | 8.42413 | 11265 ft | 254 kts | 248° |
| 2026-05-04 19:49 | 49.90648 | 8.39652 | 12138 ft | 265 kts | 277° |
| 2026-05-04 19:49 | 49.91379 | 8.36927 | 12713 ft | 292 kts | 306° |
| 2026-05-04 19:49 | 49.93065 | 8.34922 | 12982 ft | 327 kts | 333° |
| 2026-05-04 19:50 | 49.95302 | 8.33526 | 12989 ft | 363 kts | 338° |
| 2026-05-04 19:50 | 49.97750 | 8.32141 | 13095 ft | 390 kts | 337° |
| 2026-05-04 19:50 | 49.99469 | 8.31121 | 13537 ft | 397 kts | 336° |
| 2026-05-04 19:50 | 50.02952 | 8.29032 | 14288 ft | 413 kts | 342° |
| 2026-05-04 19:51 | 50.05829 | 8.28559 | 14825 ft | 420 kts | 3° |
| 2026-05-04 19:51 | 50.08657 | 8.29554 | 15380 ft | 412 kts | 18° |
| 2026-05-04 19:51 | 50.10473 | 8.30526 | 15761 ft | 404 kts | 18° |
| 2026-05-04 19:51 | 50.13099 | 8.31978 | 16310 ft | 396 kts | 19° |
| 2026-05-04 19:52 | 50.15649 | 8.33383 | 16873 ft | 392 kts | 18° |
| 2026-05-04 19:52 | 50.18209 | 8.34768 | 17466 ft | 387 kts | 18° |
| 2026-05-04 19:52 | 50.20760 | 8.36124 | 18091 ft | 389 kts | 18° |
| 2026-05-04 19:52 | 50.23344 | 8.37485 | 18660 ft | 393 kts | 18° |
| 2026-05-04 19:53 | 50.25947 | 8.38853 | 19206 ft | 395 kts | 18° |
| 2026-05-04 19:53 | 50.28551 | 8.40225 | 19756 ft | 395 kts | 18° |
| 2026-05-04 19:53 | 50.31157 | 8.41615 | 20328 ft | 397 kts | 18° |
| 2026-05-04 19:53 | 50.33771 | 8.43040 | 20904 ft | 398 kts | 18° |
| 2026-05-04 19:54 | 50.36390 | 8.44476 | 21492 ft | 400 kts | 18° |
| 2026-05-04 19:54 | 50.38998 | 8.45906 | 22084 ft | 402 kts | 18° |
| 2026-05-04 19:54 | 50.41646 | 8.47355 | 22700 ft | 403 kts | 18° |
| 2026-05-04 19:54 | 50.44301 | 8.48807 | 23318 ft | 404 kts | 18° |
| 2026-05-04 19:55 | 50.46968 | 8.50268 | 23869 ft | 405 kts | 18° |
| 2026-05-04 19:55 | 50.49645 | 8.51669 | 23978 ft | 417 kts | 16° |
| 2026-05-04 19:55 | 50.52489 | 8.53033 | 23993 ft | 426 kts | 15° |
| 2026-05-04 19:55 | 50.55345 | 8.54364 | 23986 ft | 428 kts | 15° |
| 2026-05-04 19:56 | 50.58155 | 8.55676 | 23977 ft | 424 kts | 15° |
| 2026-05-04 19:56 | 50.60975 | 8.57008 | 23981 ft | 422 kts | 15° |
| 2026-05-04 19:56 | 50.63783 | 8.58349 | 23980 ft | 420 kts | 16° |
| 2026-05-04 19:56 | 50.66577 | 8.59690 | 23984 ft | 419 kts | 16° |
| 2026-05-04 19:57 | 50.69360 | 8.61031 | 23992 ft | 419 kts | 16° |
| 2026-05-04 19:57 | 50.72154 | 8.62379 | 23998 ft | 420 kts | 16° |
| 2026-05-04 19:57 | 50.74951 | 8.63732 | 23997 ft | 421 kts | 16° |
| 2026-05-04 19:57 | 50.77777 | 8.64929 | 23977 ft | 421 kts | 5° |
| 2026-05-04 19:58 | 50.80678 | 8.64823 | 23996 ft | 415 kts | 345° |
| 2026-05-04 19:58 | 50.83370 | 8.63315 | 24007 ft | 409 kts | 329° |
| 2026-05-04 19:58 | 50.85664 | 8.60740 | 23987 ft | 403 kts | 313° |
| 2026-05-04 19:58 | 50.87620 | 8.57565 | 23995 ft | 401 kts | 309° |
| 2026-05-04 19:59 | 50.89459 | 8.54247 | 24000 ft | 401 kts | 307° |
| 2026-05-04 19:59 | 50.91268 | 8.50882 | 23992 ft | 401 kts | 307° |
| 2026-05-04 19:59 | 50.93078 | 8.47478 | 24002 ft | 409 kts | 307° |
| 2026-05-04 19:59 | 50.94933 | 8.43967 | 24008 ft | 421 kts | 307° |
| 2026-05-04 20:00 | 50.96824 | 8.40387 | 24009 ft | 429 kts | 307° |
| 2026-05-04 20:00 | 50.98722 | 8.36804 | 23998 ft | 430 kts | 307° |
| 2026-05-04 20:00 | 51.00641 | 8.33183 | 23991 ft | 427 kts | 307° |
| 2026-05-04 20:00 | 51.02547 | 8.29581 | 23986 ft | 426 kts | 307° |
| 2026-05-04 20:01 | 51.04447 | 8.25981 | 23993 ft | 424 kts | 307° |
| 2026-05-04 20:01 | 51.06335 | 8.22395 | 23995 ft | 423 kts | 307° |
| 2026-05-04 20:01 | 51.08229 | 8.18790 | 23809 ft | 426 kts | 307° |
| 2026-05-04 20:01 | 51.10126 | 8.15173 | 23511 ft | 424 kts | 307° |
| 2026-05-04 20:02 | 51.12005 | 8.11589 | 23181 ft | 419 kts | 307° |
| 2026-05-04 20:02 | 51.13869 | 8.08027 | 22858 ft | 417 kts | 307° |
| 2026-05-04 20:02 | 51.15725 | 8.04473 | 22538 ft | 416 kts | 307° |
| 2026-05-04 20:02 | 51.17568 | 8.00938 | 22222 ft | 415 kts | 307° |
| 2026-05-04 20:03 | 51.19411 | 7.97398 | 21909 ft | 413 kts | 307° |
| 2026-05-04 20:03 | 51.21244 | 7.93873 | 21586 ft | 412 kts | 307° |
| 2026-05-04 20:03 | 51.23068 | 7.90361 | 21283 ft | 411 kts | 307° |
| 2026-05-04 20:03 | 51.24890 | 7.86849 | 20983 ft | 410 kts | 307° |
| 2026-05-04 20:04 | 51.26710 | 7.83335 | 20672 ft | 409 kts | 307° |
| 2026-05-04 20:04 | 51.28496 | 7.79879 | 20378 ft | 408 kts | 307° |
| 2026-05-04 20:04 | 51.30303 | 7.76380 | 20075 ft | 406 kts | 307° |
| 2026-05-04 20:04 | 51.32100 | 7.72892 | 19779 ft | 405 kts | 307° |
| 2026-05-04 20:05 | 51.33886 | 7.69423 | 19497 ft | 403 kts | 307° |
| 2026-05-04 20:05 | 51.35666 | 7.65963 | 19205 ft | 402 kts | 307° |
| 2026-05-04 20:05 | 51.37433 | 7.62528 | 18913 ft | 396 kts | 307° |
| 2026-05-04 20:05 | 51.39064 | 7.59024 | 18470 ft | 389 kts | 295° |
| 2026-05-04 20:06 | 51.39903 | 7.55042 | 18011 ft | 368 kts | 275° |
| 2026-05-04 20:06 | 51.39888 | 7.51062 | 17534 ft | 351 kts | 259° |
| 2026-05-04 20:06 | 51.39265 | 7.47377 | 17045 ft | 337 kts | 244° |
| 2026-05-04 20:06 | 51.38177 | 7.44132 | 16595 ft | 326 kts | 236° |
| 2026-05-04 20:07 | 51.36963 | 7.41179 | 16141 ft | 318 kts | 234° |
| 2026-05-04 20:07 | 51.35722 | 7.38306 | 15678 ft | 311 kts | 234° |
| 2026-05-04 20:07 | 51.34500 | 7.35479 | 15235 ft | 305 kts | 234° |
| 2026-05-04 20:07 | 51.33311 | 7.32700 | 14795 ft | 301 kts | 234° |
| 2026-05-04 20:08 | 51.32145 | 7.29949 | 14367 ft | 297 kts | 234° |
| 2026-05-04 20:08 | 51.30994 | 7.27215 | 13941 ft | 295 kts | 234° |
| 2026-05-04 20:08 | 51.29849 | 7.24491 | 13472 ft | 292 kts | 234° |
| 2026-05-04 20:08 | 51.28726 | 7.21817 | 13006 ft | 290 kts | 234° |
| 2026-05-04 20:09 | 51.27601 | 7.19140 | 12533 ft | 288 kts | 235° |
| 2026-05-04 20:09 | 51.26807 | 7.16205 | 11984 ft | 292 kts | 258° |
| 2026-05-04 20:09 | 51.26864 | 7.12953 | 11439 ft | 298 kts | 282° |
| 2026-05-04 20:09 | 51.27755 | 7.09987 | 10911 ft | 303 kts | 306° |
| 2026-05-04 20:10 | 51.29405 | 7.07844 | 10347 ft | 307 kts | 336° |
| 2026-05-04 20:10 | 51.31475 | 7.07323 | 9828 ft | 308 kts | 7° |
| 2026-05-04 20:10 | 51.33433 | 7.08563 | 9331 ft | 302 kts | 40° |
| 2026-05-04 20:10 | 51.34716 | 7.11083 | 9105 ft | 286 kts | 59° |
| 2026-05-04 20:11 | 51.35810 | 7.13656 | 8901 ft | 274 kts | 56° |
| 2026-05-04 20:11 | 51.36919 | 7.16097 | 8616 ft | 267 kts | 55° |
| 2026-05-04 20:11 | 51.38010 | 7.18452 | 8350 ft | 260 kts | 55° |
| 2026-05-04 20:11 | 51.39153 | 7.20662 | 8070 ft | 258 kts | 40° |
| 2026-05-04 20:12 | 51.40744 | 7.21908 | 7809 ft | 256 kts | 9° |
| 2026-05-04 20:12 | 51.42499 | 7.21762 | 7484 ft | 254 kts | 339° |
| 2026-05-04 20:12 | 51.43974 | 7.20266 | 7123 ft | 252 kts | 308° |
| 2026-05-04 20:12 | 51.44821 | 7.17862 | 6454 ft | 257 kts | 281° |
| 2026-05-04 20:13 | 51.44934 | 7.15000 | 5745 ft | 259 kts | 265° |
| 2026-05-04 20:13 | 51.44815 | 7.12129 | 5214 ft | 253 kts | 264° |
| 2026-05-04 20:13 | 51.44465 | 7.09483 | 4873 ft | 235 kts | 244° |
| 2026-05-04 20:13 | 51.43699 | 7.07260 | 4590 ft | 223 kts | 237° |
| 2026-05-04 20:14 | 51.42832 | 7.05224 | 4309 ft | 221 kts | 233° |
| 2026-05-04 20:14 | 51.41922 | 7.03262 | 4025 ft | 224 kts | 232° |
| 2026-05-04 20:14 | 51.40956 | 7.01232 | 3732 ft | 228 kts | 231° |
| 2026-05-04 20:14 | 51.39987 | 6.99206 | 3444 ft | 229 kts | 232° |
| 2026-05-04 20:15 | 51.39027 | 6.97198 | 3138 ft | 223 kts | 232° |
| 2026-05-04 20:15 | 51.38108 | 6.95275 | 2836 ft | 211 kts | 231° |
| 2026-05-04 20:15 | 51.37239 | 6.93456 | 2571 ft | 200 kts | 231° |
| 2026-05-04 20:15 | 51.36428 | 6.91758 | 2313 ft | 191 kts | 231° |
| 2026-05-04 20:16 | 51.35633 | 6.90094 | 2042 ft | 180 kts | 231° |
| 2026-05-04 20:16 | 51.34844 | 6.88470 | 1513 ft | 194 kts | 231° |
| 2026-05-04 20:16 | 51.33977 | 6.86703 | 1498 ft | 218 kts | 231° |
| 2026-05-04 20:16 | 51.33013 | 6.84644 | 1355 ft | 239 kts | 232° |
| 2026-05-04 20:17 | 51.32037 | 6.82538 | 1205 ft | 236 kts | 232° |
| 2026-05-04 20:17 | 51.31020 | 6.80427 | 633 ft | 239 kts | 231° |
| 2026-05-04 20:17 | 51.30023 | 6.78334 | 316 ft | 233 kts | 231° |
| 2026-05-04 20:17 | 51.29051 | 6.76312 | 210 ft | 221 kts | 231° |